Terminal Aerodrome Forecast
Issued by NWS

Home | Current Version | Previous Version | Text Only | Print | Product List | Glossary Off
Versions: 1 2 3 4 5 6 7 8 9 10 11 12 13

107
FTUS43 KGRB 062338
TAFCWA
TAF
KCWA 062338Z 0700/0724 25014G24KT P6SM -SHSN OVC022
     FM070900 25013G24KT P6SM -SN BKN018
     FM071600 26017G29KT P6SM -SN BKN025=

USA.gov is the U.S. government's official web portal to all federal, state and local government web resources and services.